Time;durP1;ratioP1;P1;durP2;ratioP2;P2;SDS_P1;SDS_P2;PMS_P1;PMS_P2;Temp;Humidity;BMP_temperature;BMP_pressure;BME280_temperature;BME280_humidity;BME280_pressure;Samples;Min_cycle;Max_cycle;Signal;HPM_P1;HPM_P2
2022/03/23 00:01:18;;;;;;;18.12;8.03;;;;;;;-2.46;54.34;101854.53;1654434;86;21540;-78
2022/03/23 00:04:25;;;;;;;15.15;8.30;;;;;;;-2.49;54.49;101846.16;1653793;86;21228;-81
2022/03/23 00:07:28;;;;;;;14.93;7.25;;;;;;;-2.49;54.62;101850.61;1654989;86;21751;-81
2022/03/23 00:10:34;;;;;;;17.55;9.35;;;;;;;-2.52;54.80;101846.26;1666206;86;21268;-79
2022/03/23 00:13:41;;;;;;;16.05;7.45;;;;;;;-2.51;54.88;101847.13;1666307;86;21217;-79
2022/03/23 00:16:47;;;;;;;18.90;8.20;;;;;;;-2.51;55.01;101843.98;1665138;86;21240;-77
2022/03/23 00:19:53;;;;;;;15.72;8.23;;;;;;;-2.51;55.03;101839.96;1665018;86;21221;-78
2022/03/23 00:22:53;;;;;;;23.83;10.00;;;;;;;-2.50;55.15;101840.36;1664862;86;21247;-78
2022/03/23 00:25:53;;;;;;;17.12;8.45;;;;;;;-2.53;55.15;101832.46;1666435;86;21216;-78
2022/03/23 00:29:00;;;;;;;21.73;9.73;;;;;;;-2.56;55.29;101835.23;1665019;86;21339;-79
2022/03/23 00:32:06;;;;;;;19.27;8.63;;;;;;;-2.61;55.44;101835.88;1665018;86;21342;-78
2022/03/23 00:35:13;;;;;;;22.20;8.30;;;;;;;-2.65;55.63;101828.40;1666240;86;21194;-79
2022/03/23 00:38:20;;;;;;;18.27;8.60;;;;;;;-2.68;56.04;101822.27;1666317;86;21815;-79
2022/03/23 00:41:27;;;;;;;18.82;8.18;;;;;;;-2.73;56.15;101824.24;1666051;86;21368;-79
2022/03/23 00:44:33;;;;;;;19.62;8.95;;;;;;;-2.79;56.27;101819.11;1666358;86;21197;-79
2022/03/23 00:47:40;;;;;;;28.62;9.60;;;;;;;-2.85;56.21;101814.39;1666163;86;21815;-77
2022/03/23 00:50:54;;;;;;;17.25;8.73;;;;;;;-2.92;56.22;101819.53;1666241;86;21213;-79
2022/03/23 00:54:03;;;;;;;15.88;8.50;;;;;;;-2.99;56.40;101812.66;1664926;86;21225;-78
2022/03/23 00:57:12;;;;;;;25.85;8.55;;;;;;;-3.05;56.63;101800.83;1666233;86;21266;-79
2022/03/23 01:00:22;;;;;;;22.37;8.75;;;;;;;-3.04;56.77;101803.05;1666259;86;21796;-79
2022/03/23 01:03:29;;;;;;;20.08;8.73;;;;;;;-3.04;56.81;101809.73;1664861;86;21256;-78
2022/03/23 01:06:35;;;;;;;24.50;8.60;;;;;;;-3.09;56.91;101805.41;1665098;86;21844;-79
2022/03/23 01:09:44;;;;;;;21.00;9.13;;;;;;;-3.11;57.08;101802.36;1662373;86;21788;-79
2022/03/23 01:12:55;;;;;;;22.80;9.30;;;;;;;-3.15;57.23;101799.41;1657907;86;21307;-79
2022/03/23 01:16:00;;;;;;;12.70;6.93;;;;;;;-3.23;57.25;101800.13;1659111;86;21212;-79
2022/03/23 01:19:07;;;;;;;21.73;9.65;;;;;;;-3.23;57.25;101800.13;1657565;86;22043;-79
2022/03/23 01:22:13;;;;;;;16.85;8.38;;;;;;;-3.26;57.33;101793.52;1658384;86;21216;-79
2022/03/23 01:25:19;;;;;;;21.95;9.25;;;;;;;-3.30;57.49;101795.42;1658736;86;21220;-78
2022/03/23 01:28:25;;;;;;;23.02;10.05;;;;;;;-3.34;57.65;101809.83;1658471;86;21838;-78
2022/03/23 01:31:25;;;;;;;15.48;7.95;;;;;;;-3.36;57.81;101803.66;1658798;86;21790;-79
2022/03/23 01:34:18;;;;;;;21.42;8.80;;;;;;;-3.31;58.02;101807.52;1658766;86;21322;-79
2022/03/23 01:37:05;;;;;;;25.97;9.53;;;;;;;-3.22;58.11;101796.52;1658819;86;21255;-79
2022/03/23 01:40:12;;;;;;;;;;;;;;;-3.13;58.16;101797.53;1661356;86;21214;-79
2022/03/23 01:43:17;;;;;;;22.62;9.00;;;;;;;-3.05;58.05;101798.16;1657955;86;20429;-78
2022/03/23 01:46:27;;;;;;;24.82;10.15;;;;;;;-3.00;57.96;101798.00;1659263;86;21790;-78
2022/03/23 01:49:33;;;;;;;22.15;9.60;;;;;;;-2.96;57.86;101790.27;1658811;86;21326;-77
2022/03/23 01:52:40;;;;;;;23.18;10.23;;;;;;;-2.93;57.73;101795.03;1658362;86;21299;-78
2022/03/23 01:55:46;;;;;;;24.37;10.40;;;;;;;-2.91;57.69;101786.97;1659246;86;21200;-78
2022/03/23 01:58:53;;;;;;;26.40;10.43;;;;;;;-2.91;57.60;101794.53;1658354;86;21227;-78
2022/03/23 02:01:58;;;;;;;21.50;9.10;;;;;;;-2.94;57.55;101791.95;1658609;86;21243;-78
2022/03/23 02:05:09;;;;;;;32.03;10.15;;;;;;;-2.98;57.64;101787.62;1659132;86;21228;-78
2022/03/23 02:08:17;;;;;;;18.17;8.68;;;;;;;-3.07;57.88;101783.93;1657866;86;21236;-78
2022/03/23 02:11:25;;;;;;;26.23;10.05;;;;;;;-3.17;57.97;101784.72;1655374;86;21235;-78
2022/03/23 02:14:34;;;;;;;29.07;9.55;;;;;;;-3.27;58.10;101788.64;1654355;86;21818;-78
2022/03/23 02:17:42;;;;;;;20.17;8.73;;;;;;;-3.33;58.48;101784.84;1653780;86;21280;-79
2022/03/23 02:20:48;;;;;;;21.77;8.35;;;;;;;-3.35;58.86;101786.68;1634997;86;21212;-78
2022/03/23 02:23:57;;;;;;;26.55;9.65;;;;;;;-3.34;59.17;101793.77;1654100;86;21231;-78
2022/03/23 02:27:03;;;;;;;18.45;9.55;;;;;;;-3.31;59.33;101786.12;1654989;86;21189;-78
2022/03/23 02:30:13;;;;;;;24.82;9.98;;;;;;;-3.27;59.37;101789.11;1654315;86;21247;-79
2022/03/23 02:33:19;;;;;;;23.30;9.55;;;;;;;-3.25;59.35;101788.11;1654703;86;21196;-79
2022/03/23 02:36:25;;;;;;;25.57;11.28;;;;;;;-3.24;59.30;101781.86;1653715;86;21200;-78
2022/03/23 02:39:32;;;;;;;25.57;9.95;;;;;;;-3.22;59.25;101781.80;1653755;86;21251;-78
2022/03/23 02:42:38;;;;;;;22.93;10.90;;;;;;;-3.21;59.27;101786.21;1654980;86;21212;-78
2022/03/23 02:45:43;;;;;;;26.48;10.20;;;;;;;-3.20;59.33;101790.63;1653968;86;21260;-77
2022/03/23 02:48:54;;;;;;;19.75;10.18;;;;;;;-3.22;59.32;101784.47;1653521;86;21223;-77
2022/03/23 02:51:57;;;;;;;23.87;10.32;;;;;;;-3.22;59.32;101785.34;1653662;86;21200;-77
2022/03/23 03:02:27;;;;;;;27.75;11.75;;;;;;;-3.34;59.58;101780.39;1654653;86;21260;-77
2022/03/23 03:05:32;;;;;;;27.30;11.33;;;;;;;-3.41;59.77;101791.78;1654889;86;21313;-77
2022/03/23 03:08:51;;;;;;;25.90;12.10;;;;;;;-3.47;59.87;101787.98;1653748;85;21212;-77
2022/03/23 03:11:54;;;;;;;27.52;12.20;;;;;;;-3.52;60.01;101787.26;1655262;86;21263;-77
2022/03/23 03:14:59;;;;;;;28.27;11.18;;;;;;;-3.58;60.05;101783.42;1653747;86;21247;-77
2022/03/23 03:18:07;;;;;;;23.30;10.98;;;;;;;-3.62;60.29;101780.00;1655031;86;21208;-77
2022/03/23 03:21:15;;;;;;;25.40;12.05;;;;;;;-3.67;60.14;101782.38;1653710;86;21216;-77
2022/03/23 03:24:21;;;;;;;28.27;12.40;;;;;;;-3.76;60.34;101776.03;1654346;86;21224;-78
2022/03/23 03:27:28;;;;;;;28.55;12.18;;;;;;;-3.81;60.70;101776.61;1654947;86;21196;-77
2022/03/23 03:30:35;;;;;;;34.60;11.43;;;;;;;-3.85;60.89;101786.55;1654626;86;21251;-77
2022/03/23 03:33:41;;;;;;;28.23;12.23;;;;;;;-3.89;61.00;101780.42;1654693;86;21802;-78
2022/03/23 03:36:47;;;;;;;23.67;11.63;;;;;;;-3.91;61.02;101774.69;1655091;86;21562;-77
2022/03/23 03:39:54;;;;;;;25.32;10.85;;;;;;;-3.94;61.00;101771.67;1654973;86;21216;-78
2022/03/23 03:42:59;;;;;;;25.08;11.90;;;;;;;-3.97;60.99;101771.75;1654892;86;21200;-78
2022/03/23 03:46:10;;;;;;;28.95;12.30;;;;;;;-3.98;61.13;101768.67;1654390;86;21295;-78
2022/03/23 03:49:18;;;;;;;25.25;12.33;;;;;;;-3.99;61.38;101768.27;1653877;86;21783;-79
2022/03/23 03:52:23;;;;;;;32.90;13.03;;;;;;;-3.95;61.63;101765.02;1653757;86;21220;-78
2022/03/23 03:55:30;;;;;;;51.68;19.70;;;;;;;-3.94;61.62;101764.12;1653679;86;21271;-78
2022/03/23 03:58:35;;;;;;;39.60;16.65;;;;;;;-3.92;61.69;101756.44;1654872;86;21204;-79
2022/03/23 04:01:42;;;;;;;35.78;15.28;;;;;;;-3.87;61.68;101757.17;1653836;86;21243;-78
2022/03/23 04:04:49;;;;;;;30.65;14.83;;;;;;;-3.81;61.62;101751.20;1653547;86;21755;-78
2022/03/23 04:07:55;;;;;;;26.95;12.40;;;;;;;-3.75;61.62;101759.92;1654872;86;21208;-79
2022/03/23 04:11:00;;;;;;;33.38;14.25;;;;;;;-3.69;61.65;101762.39;1653617;86;21276;-78
2022/03/23 04:14:06;;;;;;;36.00;14.75;;;;;;;-3.67;61.65;101764.57;1655459;86;21255;-79
2022/03/23 04:17:13;;;;;;;44.53;18.75;;;;;;;-3.63;61.71;101769.33;1657787;86;21294;-79
2022/03/23 04:20:20;;;;;;;38.65;15.90;;;;;;;-3.57;61.78;101769.16;1657411;86;21223;-79
2022/03/23 04:23:26;;;;;;;43.35;18.87;;;;;;;-3.47;61.87;101766.58;1658739;86;21216;-79
2022/03/23 04:26:32;;;;;;;35.83;17.75;;;;;;;-3.35;61.88;101762.59;1658816;86;21256;-79
2022/03/23 04:29:39;;;;;;;39.08;15.48;;;;;;;-3.21;62.00;101767.01;1657539;86;21750;-79
2022/03/23 04:32:38;;;;;;;37.20;16.35;;;;;;;-3.05;61.91;101762.48;1657706;86;21231;-79
2022/03/23 04:35:30;;;;;;;34.40;14.58;;;;;;;-2.91;61.67;101759.72;1657952;86;21315;-79
2022/03/23 04:38:39;;;;;;;39.15;15.95;;;;;;;-2.75;61.48;101760.03;1658696;86;21221;-79
2022/03/23 04:41:45;;;;;;;40.70;14.35;;;;;;;-2.58;61.48;101759.42;1657411;86;21305;-78
2022/03/23 04:44:51;;;;;;;34.40;14.40;;;;;;;-2.41;61.40;101760.10;1657420;86;21231;-79
2022/03/23 04:47:56;;;;;;;36.95;14.38;;;;;;;-2.22;61.40;101760.27;1657811;86;21242;-79
2022/03/23 04:51:01;;;;;;;39.60;14.05;;;;;;;-2.04;61.69;101756.01;1658668;86;21280;-79
2022/03/23 04:54:08;;;;;;;35.45;14.33;;;;;;;-1.85;61.80;101751.65;1658665;86;21236;-78
2022/03/23 04:57:14;;;;;;;33.20;14.05;;;;;;;-1.67;61.64;101747.35;1658653;86;21219;-79
2022/03/23 05:00:22;;;;;;;32.58;13.58;;;;;;;-1.47;61.29;101750.06;1657421;86;21212;-79
2022/03/23 05:03:29;;;;;;;32.70;14.60;;;;;;;-1.25;60.53;101751.86;1658799;86;21275;-79
2022/03/23 05:06:35;;;;;;;36.70;12.93;;;;;;;-1.04;60.17;101753.13;1657622;86;21268;-79
2022/03/23 05:09:41;;;;;;;27.27;13.10;;;;;;;-0.81;59.59;101752.11;1658716;86;21494;-79
2022/03/23 05:12:48;;;;;;;31.33;14.45;;;;;;;-0.60;58.25;101754.32;1657365;86;21222;-79
2022/03/23 05:15:52;;;;;;;26.55;14.03;;;;;;;-0.39;57.50;101754.27;1654367;86;21288;-79
2022/03/23 05:19:00;;;;;;;29.80;14.28;;;;;;;-0.20;57.00;101752.94;1653483;86;21846;-78
2022/03/23 05:22:07;;;;;;;29.60;14.07;;;;;;;-0.02;56.21;101760.14;1653679;86;21212;-79
2022/03/23 05:25:13;;;;;;;28.55;13.88;;;;;;;0.17;55.74;101766.38;1653525;86;21271;-78
2022/03/23 05:28:20;;;;;;;30.70;13.93;;;;;;;0.34;54.95;101764.70;1654975;86;21248;-78
2022/03/23 05:31:28;;;;;;;33.67;14.63;;;;;;;0.50;55.05;101765.66;1654930;86;21220;-78
2022/03/23 05:34:34;;;;;;;28.30;13.35;;;;;;;0.66;54.44;101768.01;1654880;86;21252;-78
2022/03/23 05:37:42;;;;;;;31.17;14.15;;;;;;;0.82;53.84;101758.66;1654857;86;21268;-78
2022/03/23 05:40:48;;;;;;;25.85;13.65;;;;;;;0.98;53.21;101758.73;1654870;86;21200;-79
2022/03/23 05:43:54;;;;;;;35.13;15.05;;;;;;;1.14;53.03;101755.65;1653697;86;21172;-79
2022/03/23 05:46:59;;;;;;;33.88;13.40;;;;;;;1.31;52.36;101755.22;1653632;86;21224;-78
2022/03/23 05:50:05;;;;;;;31.37;15.15;;;;;;;1.48;51.20;101751.15;1655094;86;21794;-79
2022/03/23 05:53:12;;;;;;;25.82;12.65;;;;;;;1.66;50.54;101750.63;1655247;86;21839;-79
2022/03/23 05:56:18;;;;;;;24.75;11.70;;;;;;;1.83;49.93;101748.33;1654453;86;21244;-79
2022/03/23 05:59:24;;;;;;;34.65;12.58;;;;;;;1.98;49.83;101746.16;1654813;86;21256;-78
2022/03/23 06:02:30;;;;;;;29.82;12.33;;;;;;;2.14;49.29;101757.81;1654022;86;21814;-78
2022/03/23 06:05:36;;;;;;;25.25;12.73;;;;;;;2.30;48.45;101749.69;1654132;86;21793;-79
2022/03/23 06:08:41;;;;;;;28.98;14.80;;;;;;;2.41;48.49;101748.61;1654693;86;21275;-79
2022/03/23 06:11:48;;;;;;;26.65;13.00;;;;;;;2.56;48.23;101744.14;1653502;86;21224;-78
2022/03/23 06:14:53;;;;;;;21.93;11.08;;;;;;;2.71;47.42;101736.48;1655146;86;21361;-79
2022/03/23 06:17:58;;;;;;;22.40;11.38;;;;;;;2.86;46.87;101740.09;1680956;85;21247;-79
2022/03/23 06:21:04;;;;;;;22.10;12.23;;;;;;;3.00;47.15;101737.42;1688147;85;21203;-78
2022/03/23 06:24:11;;;;;;;27.07;11.28;;;;;;;3.15;46.57;101738.32;1662262;86;21751;-79
2022/03/23 06:27:18;;;;;;;22.22;11.57;;;;;;;3.29;46.83;101726.20;1681515;85;21208;-78
2022/03/23 06:30:23;;;;;;;24.35;12.10;;;;;;;3.48;45.82;101730.44;1660916;86;21571;-78
2022/03/23 06:33:29;;;;;;;19.27;9.93;;;;;;;3.61;45.54;101731.41;1653251;86;21240;-78
2022/03/23 06:36:39;;;;;;;24.40;11.33;;;;;;;3.74;44.96;101725.61;1656087;86;21299;-79
2022/03/23 06:39:42;;;;;;;19.42;10.43;;;;;;;3.88;44.83;101723.86;1656346;86;21244;-79
2022/03/23 06:42:47;;;;;;;15.18;8.90;;;;;;;4.02;44.76;101719.29;1661207;86;21249;-79
2022/03/23 06:45:52;;;;;;;21.57;7.95;;;;;;;4.20;44.30;101725.34;1656326;86;21252;-79
2022/03/23 06:48:59;;;;;;;17.48;9.13;;;;;;;4.35;43.84;101718.91;1670111;86;21288;-79
2022/03/23 06:52:07;;;;;;;25.23;8.85;;;;;;;4.50;43.81;101718.85;1670443;86;21375;-79
2022/03/23 06:55:14;;;;;;;18.48;8.73;;;;;;;4.65;43.36;101719.17;1670510;86;21229;-78
2022/03/23 06:58:21;;;;;;;19.37;8.23;;;;;;;4.77;42.58;101721.05;1673176;85;21192;-79
2022/03/23 07:01:27;;;;;;;14.95;7.65;;;;;;;4.87;42.10;101726.23;1665190;85;22546;-79
2022/03/23 07:04:33;;;;;;;9.98;5.50;;;;;;;5.00;41.83;101718.61;1683151;85;21575;-79
2022/03/23 07:07:32;;;;;;;6.67;4.45;;;;;;;5.13;41.27;101717.66;1682866;85;21228;-79
2022/03/23 07:10:31;;;;;;;12.23;5.40;;;;;;;5.28;39.65;101718.42;1671957;83;21369;-78
2022/03/23 07:13:36;;;;;;;10.72;5.25;;;;;;;5.38;39.06;101715.44;1655464;86;21782;-79
2022/03/23 07:16:43;;;;;;;11.18;6.08;;;;;;;5.47;39.30;101711.70;1653961;86;21300;-79
2022/03/23 07:19:49;;;;;;;13.68;6.75;;;;;;;5.58;38.80;101719.93;1659538;86;21834;-79
2022/03/23 07:22:55;;;;;;;12.33;6.47;;;;;;;5.68;38.94;101711.50;1631423;87;22152;-79
2022/03/23 07:26:01;;;;;;;14.85;7.42;;;;;;;5.76;38.53;101710.45;1669799;84;21223;-79
2022/03/23 07:29:08;;;;;;;17.55;7.85;;;;;;;5.83;37.62;101713.58;1645651;86;21274;-79
2022/03/23 07:32:14;;;;;;;14.90;7.25;;;;;;;5.92;37.26;101715.66;1647373;85;21219;-79
2022/03/23 07:35:20;;;;;;;16.50;7.12;;;;;;;6.02;37.16;101710.42;1650388;85;21317;-79
2022/03/23 07:38:27;;;;;;;15.43;8.15;;;;;;;6.10;37.07;101707.52;1662165;85;21296;-79
2022/03/23 07:41:32;;;;;;;16.15;7.30;;;;;;;6.16;36.42;101710.27;1661588;86;21172;-79
2022/03/23 07:44:37;;;;;;;12.98;7.30;;;;;;;6.24;36.41;101702.42;1649339;85;21188;-79
2022/03/23 07:47:44;;;;;;;20.40;8.70;;;;;;;6.33;35.68;101700.38;1624467;87;21316;-79
2022/03/23 07:50:51;;;;;;;18.20;7.22;;;;;;;6.44;36.23;101701.41;1656158;85;21271;-79
2022/03/23 07:53:59;;;;;;;14.78;8.20;;;;;;;6.55;36.26;101698.77;1633292;86;21315;-79
2022/03/23 07:57:08;;;;;;;12.53;7.20;;;;;;;6.64;35.32;101696.72;1643486;86;21249;-79
2022/03/23 08:00:17;;;;;;;14.68;6.30;;;;;;;6.70;34.65;101700.31;1662259;84;21381;-79
2022/03/23 08:03:22;;;;;;;10.83;6.30;;;;;;;6.73;33.59;101697.38;1658336;84;21257;-79
2022/03/23 08:06:21;;;;;;;17.25;6.70;;;;;;;6.76;33.41;101690.31;1663151;84;21235;-80
2022/03/23 08:09:29;;;;;;;14.20;6.83;;;;;;;6.82;33.36;101677.63;1647963;86;21259;-79
2022/03/23 08:12:35;;;;;;;13.58;5.85;;;;;;;6.87;33.18;101676.77;1627186;86;21223;-79
2022/03/23 08:15:41;;;;;;;14.63;6.67;;;;;;;6.95;32.79;101679.38;1657101;85;21654;-79
2022/03/23 08:18:48;;;;;;;13.28;7.03;;;;;;;6.99;32.88;101672.71;1637433;85;21233;-79
2022/03/23 08:21:52;;;;;;;14.33;6.20;;;;;;;7.10;32.97;101668.64;1669438;84;21197;-78
2022/03/23 08:25:03;;;;;;;20.75;7.33;;;;;;;7.18;32.35;101671.63;1663504;85;21255;-79
2022/03/23 08:28:09;;;;;;;13.62;5.95;;;;;;;7.26;33.17;101665.09;1655794;85;21801;-78
2022/03/23 08:31:16;;;;;;;13.48;5.90;;;;;;;7.34;31.41;101661.28;1677655;84;21223;-78
2022/03/23 08:34:23;;;;;;;11.73;4.95;;;;;;;7.37;31.57;101666.45;1658355;85;21244;-79
2022/03/23 08:37:29;;;;;;;8.43;5.30;;;;;;;7.43;31.05;101659.18;1659001;85;21219;-79
2022/03/23 08:40:36;;;;;;;10.55;5.45;;;;;;;7.47;31.18;101652.97;1665133;85;21791;-79
2022/03/23 08:43:36;;;;;;;12.15;5.10;;;;;;;7.51;30.18;101638.62;1657654;86;22152;-79
2022/03/23 08:46:41;;;;;;;8.00;4.58;;;;;;;7.56;30.54;101643.20;1658239;85;21665;-79
2022/03/23 08:49:46;;;;;;;13.40;5.85;;;;;;;7.64;29.69;101636.64;1664498;85;21188;-79
2022/03/23 08:52:53;;;;;;;12.75;4.35;;;;;;;7.64;29.65;101628.47;1660128;85;21208;-79
2022/03/23 08:56:00;;;;;;;9.63;5.12;;;;;;;7.66;30.05;101630.56;1653871;85;21221;-79
2022/03/23 08:58:59;;;;;;;16.17;5.33;;;;;;;7.72;29.91;101621.05;1664920;85;21268;-80
2022/03/23 09:01:51;;;;;;;11.88;5.37;;;;;;;7.73;29.23;101625.49;1669223;85;21231;-79
2022/03/23 09:04:59;;;;;;;23.87;5.90;;;;;;;7.74;29.07;101618.55;1668033;85;22131;-79
2022/03/23 09:08:04;;;;;;;12.93;5.55;;;;;;;7.71;29.41;101608.39;1666393;85;21236;-79
2022/03/23 09:11:09;;;;;;;11.73;5.62;;;;;;;7.69;29.07;101611.25;1670130;85;21212;-80
2022/03/23 09:14:15;;;;;;;11.15;5.25;;;;;;;7.67;29.13;101603.72;1694541;83;21177;-79
2022/03/23 09:17:22;;;;;;;11.78;5.55;;;;;;;7.68;29.63;101606.80;1675575;83;21256;-79
2022/03/23 09:20:28;;;;;;;12.45;5.42;;;;;;;7.69;29.48;101603.08;1649687;86;21280;-80
2022/03/23 09:23:42;;;;;;;10.15;5.40;;;;;;;7.74;29.82;101605.43;1675891;83;21180;-80
2022/03/23 09:26:48;;;;;;;13.88;6.10;;;;;;;7.76;29.80;101592.03;1700520;83;21243;-80
2022/03/23 09:29:56;;;;;;;17.40;5.83;;;;;;;7.78;29.70;101589.20;1710594;83;21231;-80
2022/03/23 09:33:07;;;;;;;14.93;6.60;;;;;;;7.81;29.82;101585.73;1665189;85;21206;-80
2022/03/23 09:42:32;;;;;;;15.90;5.33;;;;;;;7.88;29.73;101571.09;1848263;76;28745;-80
2022/03/23 09:48:50;;;;;;;11.00;8.30;;;;;;;7.91;29.44;101567.62;1812003;78;21542;-80
2022/03/23 09:51:56;;;;;;;13.55;7.78;;;;;;;7.97;28.62;101575.78;1801129;78;22127;-80
2022/03/23 09:55:04;;;;;;;15.50;5.87;;;;;;;8.04;28.33;101566.08;1812147;77;21240;-79
2022/03/23 09:58:12;;;;;;;11.45;6.28;;;;;;;8.08;28.60;101558.02;1810044;77;21614;-79
2022/03/23 10:01:57;;;;;;;12.95;5.70;;;;;;;8.11;28.66;101546.00;1804746;77;21204;-80
2022/03/23 10:05:35;;;;;;;15.28;5.40;;;;;;;8.17;28.51;101548.20;1785527;79;21790;-79
2022/03/23 10:09:29;;;;;;;9.98;5.37;;;;;;;8.25;28.43;101541.59;1739879;81;21744;-79
2022/03/23 10:13:15;;;;;;;12.50;6.05;;;;;;;8.27;27.70;101535.50;1744827;80;21763;-80
2022/03/23 10:16:53;;;;;;;10.20;5.12;;;;;;;8.31;28.07;101522.48;1717369;81;21533;-80
2022/03/23 10:19:59;;;;;;;11.43;4.87;;;;;;;8.36;27.44;101521.11;1788274;79;21276;-80
2022/03/23 10:23:06;;;;;;;11.97;5.87;;;;;;;8.40;27.61;101517.13;1726224;82;21201;-79
2022/03/23 10:26:19;;;;;;;10.90;5.85;;;;;;;8.42;27.22;101508.34;1713597;82;21814;-79
2022/03/23 10:29:32;;;;;;;7.90;4.87;;;;;;;8.49;27.50;101506.44;1715589;82;21860;-79
2022/03/23 10:32:46;;;;;;;21.05;5.47;;;;;;;8.54;27.32;101504.16;1733100;81;21255;-80
2022/03/23 10:35:52;;;;;;;8.40;4.95;;;;;;;8.60;27.57;101501.75;1763241;81;21319;-79
2022/03/23 10:38:58;;;;;;;9.70;4.97;;;;;;;8.69;27.19;101494.63;1780601;79;21216;-79
2022/03/23 10:42:23;;;;;;;6.00;4.75;;;;;;;8.70;26.92;101482.23;1787772;78;21709;-79
2022/03/23 10:45:31;;;;;;;10.65;5.42;;;;;;;8.69;26.77;101479.62;1797984;79;21227;-79
2022/03/23 10:48:36;;;;;;;9.13;4.30;;;;;;;8.66;26.42;101476.69;1797592;79;21483;-79
2022/03/23 10:51:43;;;;;;;10.35;4.35;;;;;;;8.64;25.81;101469.62;1779629;79;21142;-79
2022/03/23 10:55:03;;;;;;;7.92;4.28;;;;;;;8.62;25.56;101460.22;1696900;83;21781;-79
2022/03/23 10:58:15;;;;;;;9.35;4.83;;;;;;;8.60;25.42;101441.75;1706197;83;21178;-79
2022/03/23 11:01:19;;;;;;;;;;;;;;;8.62;25.93;101441.13;1703657;84;21883;-80
2022/03/23 11:04:28;;;;;;;9.63;5.10;;;;;;;8.68;26.10;101435.12;1709894;82;20620;-79
2022/03/23 11:07:40;;;;;;;9.75;5.45;;;;;;;8.70;25.86;101434.50;1738128;81;21975;-79
2022/03/23 11:17:37;;;;;;;10.90;5.80;;;;;;;8.69;25.97;101412.80;1772675;79;21174;-79
2022/03/23 11:20:55;;;;;;;8.90;5.03;;;;;;;8.68;26.33;101408.35;1681475;82;21831;-79
2022/03/23 11:24:03;;;;;;;12.57;5.43;;;;;;;8.69;26.64;101402.75;1761783;81;21197;-78
2022/03/23 11:27:18;;;;;;;8.50;5.00;;;;;;;8.72;26.69;101400.77;1737184;80;21260;-78
2022/03/23 11:30:24;;;;;;;14.53;5.92;;;;;;;8.73;26.12;101397.89;1706216;82;22627;-78
2022/03/23 11:33:34;;;;;;;8.90;5.08;;;;;;;8.79;26.31;101389.14;1718464;82;21205;-79
2022/03/23 11:36:39;;;;;;;9.70;5.53;;;;;;;8.83;26.14;101380.19;1694703;84;21284;-80
2022/03/23 11:40:03;;;;;;;11.50;5.17;;;;;;;8.86;26.22;101373.95;1722647;82;21190;-79
2022/03/23 11:43:10;;;;;;;8.80;5.22;;;;;;;8.93;25.75;101379.70;1720347;82;21246;-79
2022/03/23 11:46:17;;;;;;;12.88;5.33;;;;;;;8.98;25.26;101370.59;1771433;79;22115;-78
2022/03/23 11:49:53;;;;;;;17.25;5.30;;;;;;;8.99;24.96;101360.06;1785141;79;21221;-79
2022/03/23 11:53:22;;;;;;;9.60;4.47;;;;;;;9.01;25.23;101358.55;1792236;79;21791;-78
2022/03/23 11:56:55;;;;;;;11.57;5.80;;;;;;;9.03;26.02;101356.53;1783384;79;21223;-79
2022/03/23 12:00:00;;;;;;;15.40;5.80;;;;;;;9.05;26.22;101350.45;1777116;79;21180;-78
2022/03/23 12:03:07;;;;;;;11.60;6.45;;;;;;;9.07;26.32;101349.28;1783195;79;21225;-79
2022/03/23 12:06:25;;;;;;;9.43;5.95;;;;;;;9.09;25.92;101332.79;1702669;83;21237;-78
2022/03/23 12:09:45;;;;;;;10.65;5.97;;;;;;;9.07;26.05;101332.91;1714490;82;21827;-78
2022/03/23 12:12:51;;;;;;;10.63;5.72;;;;;;;9.04;25.86;101326.39;1774792;79;21252;-78
2022/03/23 12:16:07;;;;;;;14.05;5.12;;;;;;;9.00;25.36;101324.09;1706558;81;21270;-78
2022/03/23 12:19:15;;;;;;;12.23;4.85;;;;;;;9.02;24.58;101325.66;1736504;80;21229;-78
2022/03/23 12:22:22;;;;;;;9.50;4.55;;;;;;;9.07;24.10;101326.59;1750271;79;21177;-78
2022/03/23 12:25:51;;;;;;;8.80;4.80;;;;;;;9.10;23.62;101324.45;1739134;79;21264;-79
2022/03/23 12:29:08;;;;;;;7.77;4.70;;;;;;;9.11;23.20;101317.12;1765517;80;21220;-78
2022/03/23 12:32:15;;;;;;;13.78;4.95;;;;;;;9.13;23.33;101315.98;1753659;81;21782;-79
2022/03/23 12:35:20;;;;;;;7.40;4.60;;;;;;;9.17;23.59;101312.45;1756979;81;21200;-79
2022/03/23 12:38:29;;;;;;;11.35;4.40;;;;;;;9.17;23.60;101306.52;1749570;81;21280;-79
2022/03/23 12:41:40;;;;;;;8.90;4.92;;;;;;;9.24;23.80;101303.20;1729750;82;21213;-80
2022/03/23 12:44:47;;;;;;;8.80;5.22;;;;;;;9.32;23.62;101302.84;1756544;81;21264;-80
2022/03/23 12:48:07;;;;;;;9.73;4.10;;;;;;;9.37;23.32;101295.08;1709907;82;21379;-77
2022/03/23 12:58:15;;;;;;;8.98;4.53;;;;;;;9.37;22.26;101292.34;1770688;79;21746;-79
2022/03/23 13:01:26;;;;;;;9.63;4.83;;;;;;;9.34;22.52;101281.70;1793567;79;21196;-79
2022/03/23 13:04:56;;;;;;;9.48;4.60;;;;;;;9.33;22.42;101273.67;1792336;78;21243;-79
2022/03/23 13:08:01;;;;;;;8.60;4.60;;;;;;;9.28;22.04;101278.20;1769439;80;21199;-79
2022/03/23 13:11:14;;;;;;;10.88;4.22;;;;;;;9.25;22.33;101267.55;1793155;79;21188;-79
2022/03/23 13:14:21;;;;;;;7.90;4.10;;;;;;;9.25;22.42;101262.09;1796867;79;21185;-80
2022/03/23 13:17:27;;;;;;;6.67;4.10;;;;;;;9.26;22.28;101261.59;1790150;79;21207;-80
2022/03/23 13:20:35;;;;;;;8.63;4.78;;;;;;;9.27;22.47;101253.27;1789567;79;21292;-79
2022/03/23 13:23:41;;;;;;;8.00;4.42;;;;;;;9.27;22.66;101247.81;1787320;79;21279;-80
2022/03/23 13:26:50;;;;;;;10.80;5.12;;;;;;;9.20;22.80;101242.56;1781615;79;21259;-80
2022/03/23 13:30:01;;;;;;;9.98;4.83;;;;;;;9.15;23.12;101237.53;1716247;82;21234;-80
2022/03/23 13:33:08;;;;;;;12.50;5.45;;;;;;;9.10;23.36;101236.25;1798947;79;21223;-80
2022/03/23 13:36:17;;;;;;;11.12;5.22;;;;;;;9.09;23.78;101229.94;1753564;79;21189;-79
2022/03/23 13:39:24;;;;;;;12.10;5.25;;;;;;;9.10;24.10;101230.80;1785155;79;21189;-79
2022/03/23 13:45:59;;;;;;;12.07;5.58;;;;;;;9.23;24.12;101222.31;1749265;81;21264;-80
2022/03/23 13:49:13;;;;;;;13.55;5.90;;;;;;;9.36;24.00;101230.56;1682898;84;21603;-79
2022/03/23 13:52:20;;;;;;;13.35;6.00;;;;;;;9.38;23.82;101217.61;1756854;81;21239;-79
2022/03/23 13:55:26;;;;;;;7.78;5.22;;;;;;;9.32;23.94;101217.34;1766281;80;21827;-79
2022/03/23 13:58:32;;;;;;;10.10;5.37;;;;;;;9.24;23.93;101209.87;1767829;80;21304;-79
2022/03/23 14:01:40;;;;;;;11.33;6.87;;;;;;;9.16;23.85;101209.23;1765712;80;21275;-78
2022/03/23 14:04:47;;;;;;;14.60;6.55;;;;;;;9.20;23.67;101200.25;1704230;83;21241;-79
2022/03/23 14:07:53;;;;;;;13.10;6.03;;;;;;;9.24;23.97;101196.73;1690585;83;21258;-79
2022/03/23 14:10:58;;;;;;;13.30;6.70;;;;;;;9.25;24.45;101199.31;1683514;83;21184;-80
2022/03/23 14:14:06;;;;;;;12.00;6.47;;;;;;;9.32;24.76;101196.36;1711884;83;21241;-79
2022/03/23 14:17:24;;;;;;;10.25;5.97;;;;;;;9.37;24.66;101187.23;1709549;83;21228;-79
2022/03/23 14:20:32;;;;;;;13.00;6.45;;;;;;;9.36;24.78;101184.14;1709253;83;21208;-79
2022/03/23 14:23:40;;;;;;;11.65;6.67;;;;;;;9.32;25.18;101183.22;1704163;83;21247;-78
2022/03/23 14:26:48;;;;;;;14.43;7.62;;;;;;;9.28;25.06;101181.78;1718863;81;21803;-79
2022/03/23 14:30:12;;;;;;;19.45;8.18;;;;;;;9.18;25.01;101176.34;1723221;81;21788;-80
2022/03/23 14:33:18;;;;;;;14.90;6.87;;;;;;;9.08;25.24;101172.75;1722529;82;22455;-78
2022/03/23 14:36:35;;;;;;;15.18;7.67;;;;;;;9.02;25.61;101176.06;1725080;82;21288;-79
2022/03/23 14:39:53;;;;;;;14.38;8.00;;;;;;;9.02;26.13;101171.47;1747425;81;21196;-78
2022/03/23 14:43:00;;;;;;;14.18;7.87;;;;;;;9.06;25.76;101171.53;1756018;81;21240;-78
2022/03/23 14:46:31;;;;;;;16.00;8.48;;;;;;;9.05;25.67;101167.59;1780386;79;21322;-79
2022/03/23 14:49:43;;;;;;;13.80;8.65;;;;;;;9.01;25.36;101163.44;1775787;79;21275;-78
2022/03/23 14:52:50;;;;;;;35.78;9.65;;;;;;;8.98;25.60;101161.84;1781762;79;21168;-79
2022/03/23 14:55:56;;;;;;;25.88;9.10;;;;;;;8.90;25.19;101157.12;1784785;78;21260;-79
2022/03/23 14:59:06;;;;;;;21.42;9.98;;;;;;;8.80;24.95;101154.92;1790064;79;21264;-78
2022/03/23 15:02:14;;;;;;;16.77;7.80;;;;;;;8.70;25.02;101154.03;1777735;79;21196;-78
2022/03/23 15:15:42;;;;;;;20.05;10.18;;;;;;;8.33;25.99;101138.36;1787101;79;21812;-79